Galaxy Ace — D5CZ7 — position and weather

sailwx.info

Track history (hours):
 
Tides and Currents Weather Stations Pressure Air Temp Water Temp Dewpoint Dewpoint Depression Visibility Wind Speed Wind Dir Waves Ship Positions

Galaxy Ace

Last reported at 2017-Sep-07 02:53 UTC. Time now 2017-Sep-20 02:07 UTC.
Position N 33°22' W 125°14'.
Warning: this ship's position is 12 days out of date.

Length 199 m; draft 9.3 m.

Type: Cargo ship. MMSI: 636015819.

Date/timePositionNaut miles runAvg speedWind from/ knotsBaromVisibWave heightAir tempDewpointWater temp
2017-Sep-07 02:53N 33°22' W 125°14'815.8
2017-Sep-07 02:25N 33°20' W 125°06'7415.1
2017-Sep-06 21:32N 33°05' W 123°39'215.8
2017-Sep-06 21:24N 33°05' W 123°37'715.8
2017-Sep-06 20:58N 33°05' W 123°29'815.9
2017-Sep-06 20:27N 33°05' W 123°19'716.0
2017-Sep-06 19:59N 33°05' W 123°10'816.0
2017-Sep-06 19:29N 33°05' W 123°00'815.9
2017-Sep-06 19:00N 33°05' W 122°51'815.9
2017-Sep-06 18:30N 33°05' W 122°42'816.0
2017-Sep-06 18:01N 33°05' W 122°32'916.0
2017-Sep-06 17:27N 33°05' W 122°22'1315.9
2017-Sep-06 16:40N 33°05' W 122°07'415.7
2017-Sep-06 16:23N 33°05' W 122°02'615.6
2017-Sep-06 16:00N 33°05' W 121°54'916.2
2017-Sep-06 15:28N 33°05' W 121°44'817.3
2017-Sep-06 15:01N 33°05' W 121°35'816.0
2017-Sep-06 14:31N 33°05' W 121°25'816.0
2017-Sep-06 14:01N 33°05' W 121°15'816.1
2017-Sep-06 13:30N 33°05' W 121°06'816.1
2017-Sep-06 13:00N 33°05' W 120°56'816.3
2017-Sep-06 12:31N 33°05' W 120°47'816.2
2017-Sep-06 12:00N 33°05' W 120°37'815.6
2017-Sep-06 11:31N 33°05' W 120°28'815.7
2017-Sep-06 11:01N 33°05' W 120°18'816.1
2017-Sep-06 10:31N 33°05' W 120°09'816.4
2017-Sep-06 10:00N 33°05' W 119°59'816.2
2017-Sep-06 09:31N 33°05' W 119°49'816.1
2017-Sep-06 09:01N 33°05' W 119°39'815.9
2017-Sep-06 08:30N 33°06' W 119°30'816.3
2017-Sep-06 08:00N 33°06' W 119°20'816.4
2017-Sep-06 07:31N 33°06' W 119°10'816.2
2017-Sep-06 07:00N 33°08' W 119°01'816.1
2017-Sep-06 06:31N 33°09' W 118°51'714.3
2017-Sep-06 06:00N 33°09' W 118°43'611.8
2017-Sep-06 05:30N 33°09' W 118°36'611.9
2017-Sep-06 05:00N 33°09' W 118°29'611.8
2017-Sep-06 04:30N 33°09' W 118°22'611.3
2017-Sep-06 04:00N 33°10' W 118°15'611.2
2017-Sep-06 03:30N 33°14' W 118°11'611.2
2017-Sep-06 03:01N 33°18' W 118°07'5 9.6
2017-Sep-06 02:30N 33°23' W 118°08'510.2
2017-Sep-06 02:01N 33°28' W 118°10'510.0
2017-Sep-06 01:30N 33°33' W 118°12'5 9.5
2017-Sep-06 01:00N 33°37' W 118°12'5 9.2
2017-Sep-06 00:30N 33°42' W 118°11'3 5.5
2017-Sep-06 00:00N 33°44' W 118°12'0 0.7
2017-Sep-05 23:28N 33°45' W 118°13'0 0.0
2017-Sep-05 22:58N 33°45' W 118°13'0 0.0
2017-Sep-05 22:28N 33°45' W 118°13'0 0.0
2017-Sep-05 21:58N 33°45' W 118°13'0 0.0
2017-Sep-05 21:28N 33°45' W 118°13'0 0.0
2017-Sep-05 20:58N 33°45' W 118°13'0 0.0
2017-Sep-05 20:28N 33°45' W 118°13'0 0.0
2017-Sep-05 19:58N 33°45' W 118°13'0 0.0
2017-Sep-05 19:28N 33°45' W 118°13'0 0.0
2017-Sep-05 18:58N 33°45' W 118°13'0 0.0
2017-Sep-05 18:28N 33°45' W 118°13'0 0.0
2017-Sep-05 17:58N 33°45' W 118°13'0 0.0
2017-Sep-05 17:28N 33°45' W 118°13'0 0.0
2017-Sep-05 16:58N 33°45' W 118°13'0 0.0
2017-Sep-05 16:28N 33°45' W 118°13'0 0.0
2017-Sep-05 15:58N 33°45' W 118°13'0 0.0
2017-Sep-05 15:28N 33°45' W 118°13'0 0.0
2017-Sep-05 14:55N 33°45' W 118°13'0 0.0
2017-Sep-05 14:25N 33°45' W 118°13'0 0.0
2017-Sep-05 13:58N 33°45' W 118°13'0 0.0
2017-Sep-05 13:30N 33°45' W 118°13'1 1.2
2017-Sep-05 13:00N 33°44' W 118°12'4 8.5
2017-Sep-05 12:30N 33°40' W 118°11'3 6.6
2017-Sep-05 12:00N 33°37' W 118°10'3 6.7
2017-Sep-05 11:30N 33°34' W 118°09'3 6.1
2017-Sep-05 11:00N 33°31' W 118°08'3 5.3
2017-Sep-05 10:30N 33°28' W 118°07'4 8.1
2017-Sep-05 10:00N 33°24' W 118°05'4 7.1
2017-Sep-05 09:30N 33°21' W 118°04'4 7.5
2017-Sep-05 09:00N 33°18' W 118°02'4 8.6
2017-Sep-05 08:30N 33°14' W 118°00'611.5
2017-Sep-05 08:00N 33°08' W 117°58'612.0
2017-Sep-05 07:30N 33°03' W 117°55'612.9
2017-Sep-05 07:00N 32°57' W 117°53'612.9
2017-Sep-05 06:30N 32°51' W 117°50'713.1
2017-Sep-05 06:00N 32°45' W 117°47'613.0
2017-Sep-05 05:30N 32°38' W 117°44'612.9
2017-Sep-05 05:00N 32°32' W 117°42'612.7
2017-Sep-05 04:30N 32°26' W 117°40'612.8
2017-Sep-05 04:00N 32°20' W 117°38'612.9
2017-Sep-05 03:30N 32°14' W 117°36'612.7
2017-Sep-05 03:00N 32°08' W 117°34'812.7
2017-Sep-05 02:24N 32°00' W 117°31'512.6
2017-Sep-05 02:00N 31°55' W 117°30'612.4
2017-Sep-05 01:30N 31°50' W 117°27'712.5
2017-Sep-05 00:59N 31°43' W 117°25'  
Track history (hours):
 
Tides and Currents Weather Stations Pressure Air Temp Water Temp Dewpoint Dewpoint Depression Visibility Wind Speed Wind Dir Waves Ship Positions

Galaxy Ace

Last reported at 2017-Sep-07 02:53 UTC. Time now 2017-Sep-20 02:07 UTC.
Position N 33°22' W 125°14'.
Warning: this ship's position is 12 days out of date.

Length 199 m; draft 9.3 m.

Type: Cargo ship. MMSI: 636015819.

Date/timePositionNaut miles runAvg speedWind from/ knotsBaromVisibWave heightAir tempDewpointWater temp
2017-Sep-07 02:53N 33°22' W 125°14'815.8
2017-Sep-07 02:25N 33°20' W 125°06'7415.1
2017-Sep-06 21:32N 33°05' W 123°39'215.8
2017-Sep-06 21:24N 33°05' W 123°37'715.8
2017-Sep-06 20:58N 33°05' W 123°29'815.9
2017-Sep-06 20:27N 33°05' W 123°19'716.0
2017-Sep-06 19:59N 33°05' W 123°10'816.0
2017-Sep-06 19:29N 33°05' W 123°00'815.9
2017-Sep-06 19:00N 33°05' W 122°51'815.9
2017-Sep-06 18:30N 33°05' W 122°42'816.0
2017-Sep-06 18:01N 33°05' W 122°32'916.0
2017-Sep-06 17:27N 33°05' W 122°22'1315.9
2017-Sep-06 16:40N 33°05' W 122°07'415.7
2017-Sep-06 16:23N 33°05' W 122°02'615.6
2017-Sep-06 16:00N 33°05' W 121°54'916.2
2017-Sep-06 15:28N 33°05' W 121°44'817.3
2017-Sep-06 15:01N 33°05' W 121°35'816.0
2017-Sep-06 14:31N 33°05' W 121°25'816.0
2017-Sep-06 14:01N 33°05' W 121°15'816.1
2017-Sep-06 13:30N 33°05' W 121°06'816.1
2017-Sep-06 13:00N 33°05' W 120°56'816.3
2017-Sep-06 12:31N 33°05' W 120°47'816.2
2017-Sep-06 12:00N 33°05' W 120°37'815.6
2017-Sep-06 11:31N 33°05' W 120°28'815.7
2017-Sep-06 11:01N 33°05' W 120°18'816.1
2017-Sep-06 10:31N 33°05' W 120°09'816.4
2017-Sep-06 10:00N 33°05' W 119°59'816.2
2017-Sep-06 09:31N 33°05' W 119°49'816.1
2017-Sep-06 09:01N 33°05' W 119°39'815.9
2017-Sep-06 08:30N 33°06' W 119°30'816.3
2017-Sep-06 08:00N 33°06' W 119°20'816.4
2017-Sep-06 07:31N 33°06' W 119°10'816.2
2017-Sep-06 07:00N 33°08' W 119°01'816.1
2017-Sep-06 06:31N 33°09' W 118°51'714.3
2017-Sep-06 06:00N 33°09' W 118°43'611.8
2017-Sep-06 05:30N 33°09' W 118°36'611.9
2017-Sep-06 05:00N 33°09' W 118°29'611.8
2017-Sep-06 04:30N 33°09' W 118°22'611.3
2017-Sep-06 04:00N 33°10' W 118°15'611.2
2017-Sep-06 03:30N 33°14' W 118°11'611.2
2017-Sep-06 03:01N 33°18' W 118°07'5 9.6
2017-Sep-06 02:30N 33°23' W 118°08'510.2
2017-Sep-06 02:01N 33°28' W 118°10'510.0
2017-Sep-06 01:30N 33°33' W 118°12'5 9.5
2017-Sep-06 01:00N 33°37' W 118°12'5 9.2
2017-Sep-06 00:30N 33°42' W 118°11'3 5.5
2017-Sep-06 00:00N 33°44' W 118°12'0 0.7
2017-Sep-05 23:28N 33°45' W 118°13'0 0.0
2017-Sep-05 22:58N 33°45' W 118°13'0 0.0
2017-Sep-05 22:28N 33°45' W 118°13'0 0.0
2017-Sep-05 21:58N 33°45' W 118°13'0 0.0
2017-Sep-05 21:28N 33°45' W 118°13'0 0.0
2017-Sep-05 20:58N 33°45' W 118°13'0 0.0
2017-Sep-05 20:28N 33°45' W 118°13'0 0.0
2017-Sep-05 19:58N 33°45' W 118°13'0 0.0
2017-Sep-05 19:28N 33°45' W 118°13'0 0.0
2017-Sep-05 18:58N 33°45' W 118°13'0 0.0
2017-Sep-05 18:28N 33°45' W 118°13'0 0.0
2017-Sep-05 17:58N 33°45' W 118°13'0 0.0
2017-Sep-05 17:28N 33°45' W 118°13'0 0.0
2017-Sep-05 16:58N 33°45' W 118°13'0 0.0
2017-Sep-05 16:28N 33°45' W 118°13'0 0.0
2017-Sep-05 15:58N 33°45' W 118°13'0 0.0
2017-Sep-05 15:28N 33°45' W 118°13'0 0.0
2017-Sep-05 14:55N 33°45' W 118°13'0 0.0
2017-Sep-05 14:25N 33°45' W 118°13'0 0.0
2017-Sep-05 13:58N 33°45' W 118°13'0 0.0
2017-Sep-05 13:30N 33°45' W 118°13'1 1.2
2017-Sep-05 13:00N 33°44' W 118°12'4 8.5
2017-Sep-05 12:30N 33°40' W 118°11'3 6.6
2017-Sep-05 12:00N 33°37' W 118°10'3 6.7
2017-Sep-05 11:30N 33°34' W 118°09'3 6.1
2017-Sep-05 11:00N 33°31' W 118°08'3 5.3
2017-Sep-05 10:30N 33°28' W 118°07'4 8.1
2017-Sep-05 10:00N 33°24' W 118°05'4 7.1
2017-Sep-05 09:30N 33°21' W 118°04'4 7.5
2017-Sep-05 09:00N 33°18' W 118°02'4 8.6
2017-Sep-05 08:30N 33°14' W 118°00'611.5
2017-Sep-05 08:00N 33°08' W 117°58'612.0
2017-Sep-05 07:30N 33°03' W 117°55'612.9
2017-Sep-05 07:00N 32°57' W 117°53'612.9
2017-Sep-05 06:30N 32°51' W 117°50'713.1
2017-Sep-05 06:00N 32°45' W 117°47'613.0
2017-Sep-05 05:30N 32°38' W 117°44'612.9
2017-Sep-05 05:00N 32°32' W 117°42'612.7
2017-Sep-05 04:30N 32°26' W 117°40'612.8
2017-Sep-05 04:00N 32°20' W 117°38'612.9
2017-Sep-05 03:30N 32°14' W 117°36'612.7
2017-Sep-05 03:00N 32°08' W 117°34'812.7
2017-Sep-05 02:24N 32°00' W 117°31'512.6
2017-Sep-05 02:00N 31°55' W 117°30'612.4
2017-Sep-05 01:30N 31°50' W 117°27'712.5
2017-Sep-05 00:59N 31°43' W 117°25'  

Dump ship's entire track history